sensor_id;sensor_type;location;lat;lon;timestamp;pressure;altitude;pressure_sealevel;temperature;humidity
34979;BME280;21185;50.978;13.720;2024-02-21T00:03:34;98903.75;;;8.06;74.52
34979;BME280;21185;50.978;13.720;2024-02-21T00:08:36;98890.84;;;8.06;74.42
34979;BME280;21185;50.978;13.720;2024-02-21T00:14:09;98887.16;;;8.08;74.49
34979;BME280;21185;50.978;13.720;2024-02-21T00:19:11;98873.44;;;8.08;74.78
34979;BME280;21185;50.978;13.720;2024-02-21T00:24:14;98867.44;;;8.07;74.58
34979;BME280;21185;50.978;13.720;2024-02-21T00:29:16;98866.50;;;8.08;74.52
34979;BME280;21185;50.978;13.720;2024-02-21T00:34:18;98861.31;;;8.08;74.47
34979;BME280;21185;50.978;13.720;2024-02-21T00:39:20;98862.16;;;8.09;74.39
34979;BME280;21185;50.978;13.720;2024-02-21T00:44:28;98856.84;;;8.10;74.41
34979;BME280;21185;50.978;13.720;2024-02-21T00:49:32;98844.06;;;8.09;74.02
34979;BME280;21185;50.978;13.720;2024-02-21T00:54:34;98848.41;;;8.08;73.97
34979;BME280;21185;50.978;13.720;2024-02-21T00:59:51;98844.88;;;8.09;73.98
34979;BME280;21185;50.978;13.720;2024-02-21T01:04:54;98841.34;;;8.10;73.94
34979;BME280;21185;50.978;13.720;2024-02-21T01:09:56;98832.75;;;8.10;73.84
34979;BME280;21185;50.978;13.720;2024-02-21T01:14:58;98813.97;;;8.08;73.99
34979;BME280;21185;50.978;13.720;2024-02-21T01:20:03;98808.81;;;8.08;74.09
34979;BME280;21185;50.978;13.720;2024-02-21T01:25:08;98806.22;;;8.08;73.86
34979;BME280;21185;50.978;13.720;2024-02-21T01:30:10;98801.06;;;8.08;74.17
34979;BME280;21185;50.978;13.720;2024-02-21T01:35:12;98792.34;;;8.09;73.98
34979;BME280;21185;50.978;13.720;2024-02-21T01:40:14;98778.63;;;8.08;73.80
34979;BME280;21185;50.978;13.720;2024-02-21T01:45:21;98765.81;;;8.07;73.89
34979;BME280;21185;50.978;13.720;2024-02-21T01:50:23;98755.63;;;8.05;73.85
34979;BME280;21185;50.978;13.720;2024-02-21T01:55:26;98749.91;;;8.02;73.61
34979;BME280;21185;50.978;13.720;2024-02-21T02:00:30;98747.59;;;7.99;73.89
34979;BME280;21185;50.978;13.720;2024-02-21T02:05:35;98741.06;;;7.95;73.83
34979;BME280;21185;50.978;13.720;2024-02-21T02:10:37;98742.00;;;7.94;73.93
34979;BME280;21185;50.978;13.720;2024-02-21T02:15:47;98735.22;;;7.93;74.06
34979;BME280;21185;50.978;13.720;2024-02-21T02:20:49;98734.38;;;7.92;74.03
34979;BME280;21185;50.978;13.720;2024-02-21T02:25:51;98730.03;;;7.93;74.12
34979;BME280;21185;50.978;13.720;2024-02-21T02:30:54;98735.06;;;7.94;74.09
34979;BME280;21185;50.978;13.720;2024-02-21T02:35:56;98730.84;;;7.93;74.14
34979;BME280;21185;50.978;13.720;2024-02-21T02:41:00;98719.69;;;7.93;74.02
34979;BME280;21185;50.978;13.720;2024-02-21T02:46:03;98722.16;;;7.94;74.17
34979;BME280;21185;50.978;13.720;2024-02-21T02:51:05;98710.06;;;7.95;74.21
34979;BME280;21185;50.978;13.720;2024-02-21T02:56:14;98711.00;;;7.94;74.23
34979;BME280;21185;50.978;13.720;2024-02-21T03:01:16;98707.47;;;7.95;74.00
34979;BME280;21185;50.978;13.720;2024-02-21T03:06:19;98705.84;;;7.94;74.25
34979;BME280;21185;50.978;13.720;2024-02-21T03:11:21;98697.41;;;7.92;74.45
34979;BME280;21185;50.978;13.720;2024-02-21T03:16:32;98699.97;;;7.92;73.90
34979;BME280;21185;50.978;13.720;2024-02-21T03:21:34;98690.59;;;7.91;74.20
34979;BME280;21185;50.978;13.720;2024-02-21T03:26:36;98685.44;;;7.91;74.25
34979;BME280;21185;50.978;13.720;2024-02-21T03:31:38;98687.19;;;7.90;74.32
34979;BME280;21185;50.978;13.720;2024-02-21T03:36:40;98687.19;;;7.90;74.31
34979;BME280;21185;50.978;13.720;2024-02-21T03:41:43;98690.47;;;7.92;74.42
34979;BME280;21185;50.978;13.720;2024-02-21T03:46:48;98690.59;;;7.91;74.03
34979;BME280;21185;50.978;13.720;2024-02-21T03:51:50;98678.63;;;7.90;74.19
34979;BME280;21185;50.978;13.720;2024-02-21T03:56:55;98685.69;;;7.88;74.15
34979;BME280;21185;50.978;13.720;2024-02-21T04:01:57;98677.00;;;7.89;73.86
34979;BME280;21185;50.978;13.720;2024-02-21T04:06:59;98684.63;;;7.90;74.00
34979;BME280;21185;50.978;13.720;2024-02-21T04:12:02;98672.66;;;7.89;74.12
34979;BME280;21185;50.978;13.720;2024-02-21T04:17:04;98673.47;;;7.90;73.83
34979;BME280;21185;50.978;13.720;2024-02-21T04:22:07;98676.72;;;7.92;73.82
34979;BME280;21185;50.978;13.720;2024-02-21T04:27:09;98667.22;;;7.92;73.91
34979;BME280;21185;50.978;13.720;2024-02-21T04:32:11;98656.06;;;7.92;73.96
34979;BME280;21185;50.978;13.720;2024-02-21T04:37:17;98659.31;;;7.94;73.99
34979;BME280;21185;50.978;13.720;2024-02-21T04:42:20;98665.97;;;7.96;73.86
34979;BME280;21185;50.978;13.720;2024-02-21T04:47:22;98659.06;;;7.97;73.83
34979;BME280;21185;50.978;13.720;2024-02-21T04:52:28;98672.09;;;7.95;73.85
34979;BME280;21185;50.978;13.720;2024-02-21T04:57:30;98657.56;;;7.94;73.68
34979;BME280;21185;50.978;13.720;2024-02-21T05:02:32;98660.13;;;7.94;73.64
34979;BME280;21185;50.978;13.720;2024-02-21T05:07:35;98655.09;;;7.93;73.63
34979;BME280;21185;50.978;13.720;2024-02-21T05:12:37;98646.53;;;7.92;73.59
34979;BME280;21185;50.978;13.720;2024-02-21T05:17:40;98641.38;;;7.92;73.60
34979;BME280;21185;50.978;13.720;2024-02-21T05:22:43;98653.34;;;7.93;73.50
34979;BME280;21185;50.978;13.720;2024-02-21T05:27:46;98648.16;;;7.93;73.79
34979;BME280;21185;50.978;13.720;2024-02-21T05:32:49;98637.69;;;7.95;73.91
34979;BME280;21185;50.978;13.720;2024-02-21T05:37:51;98637.56;;;7.96;73.93
34979;BME280;21185;50.978;13.720;2024-02-21T05:42:55;98625.59;;;7.95;73.81
34979;BME280;21185;50.978;13.720;2024-02-21T05:47:57;98621.50;;;7.93;74.00
34979;BME280;21185;50.978;13.720;2024-02-21T05:53:00;98624.22;;;7.91;73.93
34979;BME280;21185;50.978;13.720;2024-02-21T05:58:03;98621.50;;;7.93;74.20
34979;BME280;21185;50.978;13.720;2024-02-21T06:03:05;98609.53;;;7.92;74.32
34979;BME280;21185;50.978;13.720;2024-02-21T06:08:07;98608.59;;;7.93;74.36
34979;BME280;21185;50.978;13.720;2024-02-21T06:13:11;98600.03;;;7.92;74.26
34979;BME280;21185;50.978;13.720;2024-02-21T06:18:13;98588.06;;;7.91;74.38
34979;BME280;21185;50.978;13.720;2024-02-21T06:23:16;98581.13;;;7.92;74.47
34979;BME280;21185;50.978;13.720;2024-02-21T06:28:19;98573.38;;;7.92;74.59
34979;BME280;21185;50.978;13.720;2024-02-21T06:33:22;98563.19;;;7.90;74.69
34979;BME280;21185;50.978;13.720;2024-02-21T06:38:28;98562.34;;;7.90;74.83
34979;BME280;21185;50.978;13.720;2024-02-21T06:43:30;98562.34;;;7.90;74.69
34979;BME280;21185;50.978;13.720;2024-02-21T06:48:36;98561.41;;;7.91;75.09
34979;BME280;21185;50.978;13.720;2024-02-21T06:53:39;98571.47;;;7.94;74.97
34979;BME280;21185;50.978;13.720;2024-02-21T06:58:42;98571.06;;;7.98;75.04
34979;BME280;21185;50.978;13.720;2024-02-21T07:09:51;98582.59;;;8.04;75.14
34979;BME280;21185;50.978;13.720;2024-02-21T07:15:34;98569.69;;;8.04;75.25
34979;BME280;21185;50.978;13.720;2024-02-21T07:20:36;98573.63;;;8.08;75.20
34979;BME280;21185;50.978;13.720;2024-02-21T07:25:39;98583.69;;;8.11;75.25
34979;BME280;21185;50.978;13.720;2024-02-21T07:30:45;98581.78;;;8.13;74.95
34979;BME280;21185;50.978;13.720;2024-02-21T07:36:37;98592.13;;;8.13;74.83
34979;BME280;21185;50.978;13.720;2024-02-21T07:41:41;98597.00;;;8.16;75.13
34979;BME280;21185;50.978;13.720;2024-02-21T07:46:46;98580.94;;;8.22;74.79
34979;BME280;21185;50.978;13.720;2024-02-21T07:51:49;98576.84;;;8.29;74.75
34979;BME280;21185;50.978;13.720;2024-02-21T07:56:51;98565.16;;;8.35;74.45
34979;BME280;21185;50.978;13.720;2024-02-21T08:01:56;98567.31;;;8.39;74.57
34979;BME280;21185;50.978;13.720;2024-02-21T08:07:00;98555.88;;;8.42;74.35
34979;BME280;21185;50.978;13.720;2024-02-21T08:18:23;98558.03;;;8.47;74.00
34979;BME280;21185;50.978;13.720;2024-02-21T08:23:25;98574.91;;;8.51;73.92
34979;BME280;21185;50.978;13.720;2024-02-21T08:28:28;98589.31;;;8.53;73.54
34979;BME280;21185;50.978;13.720;2024-02-21T08:33:33;98578.16;;;8.53;73.48
34979;BME280;21185;50.978;13.720;2024-02-21T08:38:35;98563.97;;;8.57;73.68
34979;BME280;21185;50.978;13.720;2024-02-21T08:43:38;98545.25;;;8.72;73.15
34979;BME280;21185;50.978;13.720;2024-02-21T08:48:43;98544.41;;;8.82;73.11
34979;BME280;21185;50.978;13.720;2024-02-21T08:53:48;98553.34;;;8.87;73.27
34979;BME280;21185;50.978;13.720;2024-02-21T08:58:51;98544.06;;;8.94;72.79
34979;BME280;21185;50.978;13.720;2024-02-21T09:03:57;98530.53;;;9.00;72.87
34979;BME280;21185;50.978;13.720;2024-02-21T09:09:01;98535.88;;;9.17;72.67
34979;BME280;21185;50.978;13.720;2024-02-21T09:14:04;98536.34;;;9.30;72.33
34979;BME280;21185;50.978;13.720;2024-02-21T09:19:07;98547.28;;;9.24;71.74
34979;BME280;21185;50.978;13.720;2024-02-21T09:24:17;98542.69;;;9.18;71.43
34979;BME280;21185;50.978;13.720;2024-02-21T09:29:20;98550.44;;;9.18;71.41
34979;BME280;21185;50.978;13.720;2024-02-21T09:35:01;98557.69;;;9.14;71.37
34979;BME280;21185;50.978;13.720;2024-02-21T09:40:06;98558.50;;;9.15;71.61
34979;BME280;21185;50.978;13.720;2024-02-21T09:45:21;98570.94;;;9.11;71.16
34979;BME280;21185;50.978;13.720;2024-02-21T09:50:24;98567.00;;;9.07;71.03
34979;BME280;21185;50.978;13.720;2024-02-21T09:55:27;98562.50;;;9.09;71.08
34979;BME280;21185;50.978;13.720;2024-02-21T10:00:37;98555.69;;;9.08;70.96
34979;BME280;21185;50.978;13.720;2024-02-21T10:05:47;98552.53;;;9.14;70.88
34979;BME280;21185;50.978;13.720;2024-02-21T10:10:52;98547.19;;;9.16;71.20
34979;BME280;21185;50.978;13.720;2024-02-21T10:21:08;98549.19;;;9.22;70.76
34979;BME280;21185;50.978;13.720;2024-02-21T10:26:11;98542.63;;;9.27;70.87
34979;BME280;21185;50.978;13.720;2024-02-21T10:31:28;98542.03;;;9.33;70.83
34979;BME280;21185;50.978;13.720;2024-02-21T10:36:31;98541.59;;;9.38;70.47
34979;BME280;21185;50.978;13.720;2024-02-21T10:41:33;98549.88;;;9.41;70.24
34979;BME280;21185;50.978;13.720;2024-02-21T10:46:39;98526.41;;;9.43;70.25
34979;BME280;21185;50.978;13.720;2024-02-21T10:51:45;98531.31;;;9.46;70.05
34979;BME280;21185;50.978;13.720;2024-02-21T10:56:50;98520.28;;;9.44;70.00
34979;BME280;21185;50.978;13.720;2024-02-21T11:08:27;98511.47;;;9.37;70.28
34979;BME280;21185;50.978;13.720;2024-02-21T11:13:37;98510.66;;;9.36;70.67
34979;BME280;21185;50.978;13.720;2024-02-21T11:25:12;98482.31;;;9.35;70.97
34979;BME280;21185;50.978;13.720;2024-02-21T11:30:14;98481.34;;;9.36;70.67
34979;BME280;21185;50.978;13.720;2024-02-21T11:35:21;98462.41;;;9.35;70.79
34979;BME280;21185;50.978;13.720;2024-02-21T11:40:24;98463.09;;;9.37;70.92
34979;BME280;21185;50.978;13.720;2024-02-21T11:45:26;98449.03;;;9.40;70.92
34979;BME280;21185;50.978;13.720;2024-02-21T11:57:41;98435.53;;;9.54;70.94
34979;BME280;21185;50.978;13.720;2024-02-21T12:02:46;98407.75;;;9.64;71.00
34979;BME280;21185;50.978;13.720;2024-02-21T12:07:49;98397.34;;;9.90;71.00
34979;BME280;21185;50.978;13.720;2024-02-21T12:12:52;98385.94;;;10.09;70.74
34979;BME280;21185;50.978;13.720;2024-02-21T12:17:57;98377.78;;;10.30;70.80
34979;BME280;21185;50.978;13.720;2024-02-21T12:23:00;98372.75;;;10.36;69.87
34979;BME280;21185;50.978;13.720;2024-02-21T12:28:03;98361.56;;;10.44;69.65
34979;BME280;21185;50.978;13.720;2024-02-21T12:33:05;98341.31;;;10.56;69.64
34979;BME280;21185;50.978;13.720;2024-02-21T12:38:08;98326.41;;;10.58;68.84
34979;BME280;21185;50.978;13.720;2024-02-21T12:43:11;98323.16;;;10.56;68.65
34979;BME280;21185;50.978;13.720;2024-02-21T12:48:13;98319.41;;;10.50;68.58
34979;BME280;21185;50.978;13.720;2024-02-21T12:53:19;98305.31;;;10.45;68.78
34979;BME280;21185;50.978;13.720;2024-02-21T12:58:33;98302.38;;;10.48;69.05
34979;BME280;21185;50.978;13.720;2024-02-21T13:03:36;98285.38;;;10.45;68.74
34979;BME280;21185;50.978;13.720;2024-02-21T13:08:40;98278.22;;;10.47;68.50
34979;BME280;21185;50.978;13.720;2024-02-21T13:13:43;98271.25;;;10.48;68.16
34979;BME280;21185;50.978;13.720;2024-02-21T13:18:46;98254.41;;;10.52;67.97
34979;BME280;21185;50.978;13.720;2024-02-21T13:23:50;98255.69;;;10.56;68.20
34979;BME280;21185;50.978;13.720;2024-02-21T13:28:53;98246.63;;;10.60;68.41
34979;BME280;21185;50.978;13.720;2024-02-21T13:33:55;98240.94;;;10.64;68.18
34979;BME280;21185;50.978;13.720;2024-02-21T13:38:57;98231.69;;;10.70;67.02
34979;BME280;21185;50.978;13.720;2024-02-21T13:44:00;98222.44;;;10.76;66.74
34979;BME280;21185;50.978;13.720;2024-02-21T13:49:04;98213.19;;;10.81;66.17
34979;BME280;21185;50.978;13.720;2024-02-21T13:54:09;98197.28;;;10.84;65.45
34979;BME280;21185;50.978;13.720;2024-02-21T13:59:12;98180.56;;;10.87;64.93
34979;BME280;21185;50.978;13.720;2024-02-21T14:04:18;98181.19;;;10.89;63.81
34979;BME280;21185;50.978;13.720;2024-02-21T14:09:20;98168.69;;;10.92;63.66
34979;BME280;21185;50.978;13.720;2024-02-21T14:14:22;98165.44;;;10.98;64.02
34979;BME280;21185;50.978;13.720;2024-02-21T14:19:25;98154.72;;;11.01;63.60
34979;BME280;21185;50.978;13.720;2024-02-21T14:24:27;98147.41;;;11.05;62.88
34979;BME280;21185;50.978;13.720;2024-02-21T14:29:29;98142.69;;;11.09;63.23
34979;BME280;21185;50.978;13.720;2024-02-21T14:34:32;98142.34;;;11.12;63.15
34979;BME280;21185;50.978;13.720;2024-02-21T14:39:34;98141.19;;;11.14;62.91
34979;BME280;21185;50.978;13.720;2024-02-21T14:44:37;98129.66;;;11.17;61.96
34979;BME280;21185;50.978;13.720;2024-02-21T14:49:40;98125.28;;;11.17;61.69
34979;BME280;21185;50.978;13.720;2024-02-21T14:54:42;98123.50;;;11.18;60.21
34979;BME280;21185;50.978;13.720;2024-02-21T14:59:49;98130.66;;;11.16;59.06
34979;BME280;21185;50.978;13.720;2024-02-21T15:04:55;98120.91;;;11.18;58.85
34979;BME280;21185;50.978;13.720;2024-02-21T15:09:57;98116.69;;;11.17;58.92
34979;BME280;21185;50.978;13.720;2024-02-21T15:15:00;98103.22;;;11.13;58.88
34979;BME280;21185;50.978;13.720;2024-02-21T15:20:02;98100.97;;;11.10;58.94
34979;BME280;21185;50.978;13.720;2024-02-21T15:25:07;98095.13;;;11.08;59.44
34979;BME280;21185;50.978;13.720;2024-02-21T15:30:15;98094.03;;;11.02;60.01
34979;BME280;21185;50.978;13.720;2024-02-21T15:35:17;98089.34;;;10.98;60.30
34979;BME280;21185;50.978;13.720;2024-02-21T15:40:20;98084.19;;;10.90;60.82
34979;BME280;21185;50.978;13.720;2024-02-21T15:45:22;98070.44;;;10.81;61.77
34979;BME280;21185;50.978;13.720;2024-02-21T15:57:24;98028.66;;;10.60;62.13
34979;BME280;21185;50.978;13.720;2024-02-21T16:02:27;98030.81;;;10.48;62.40
34979;BME280;21185;50.978;13.720;2024-02-21T16:07:29;98016.78;;;10.34;63.20
34979;BME280;21185;50.978;13.720;2024-02-21T16:12:32;98013.09;;;10.21;63.62
34979;BME280;21185;50.978;13.720;2024-02-21T16:17:35;98010.00;;;10.09;64.06
34979;BME280;21185;50.978;13.720;2024-02-21T16:22:37;97999.00;;;9.99;64.30
34979;BME280;21185;50.978;13.720;2024-02-21T16:27:39;97989.00;;;9.88;64.78
34979;BME280;21185;50.978;13.720;2024-02-21T16:32:43;97980.91;;;9.74;65.27
34979;BME280;21185;50.978;13.720;2024-02-21T16:37:46;97976.72;;;9.65;65.41
34979;BME280;21185;50.978;13.720;2024-02-21T16:42:49;97983.84;;;9.55;65.74
34979;BME280;21185;50.978;13.720;2024-02-21T16:47:51;97980.44;;;9.47;66.20
34979;BME280;21185;50.978;13.720;2024-02-21T16:52:54;97964.91;;;9.38;66.11
34979;BME280;21185;50.978;13.720;2024-02-21T16:57:56;97971.84;;;9.30;66.74
34979;BME280;21185;50.978;13.720;2024-02-21T17:02:58;97963.75;;;9.25;67.22
34979;BME280;21185;50.978;13.720;2024-02-21T17:08:01;97948.06;;;9.18;67.39
34979;BME280;21185;50.978;13.720;2024-02-21T17:13:03;97937.22;;;9.15;67.63
34979;BME280;21185;50.978;13.720;2024-02-21T17:18:07;97935.44;;;9.07;67.68
34979;BME280;21185;50.978;13.720;2024-02-21T17:23:09;97927.66;;;8.99;67.91
34979;BME280;21185;50.978;13.720;2024-02-21T17:28:14;97929.44;;;8.90;68.16
34979;BME280;21185;50.978;13.720;2024-02-21T17:33:18;97927.50;;;8.84;68.17
34979;BME280;21185;50.978;13.720;2024-02-21T17:38:20;97927.31;;;8.77;68.37
34979;BME280;21185;50.978;13.720;2024-02-21T17:43:23;97921.16;;;8.70;68.64
34979;BME280;21185;50.978;13.720;2024-02-21T17:48:26;97902.88;;;8.64;68.67
34979;BME280;21185;50.978;13.720;2024-02-21T17:53:29;97894.78;;;8.59;68.57
34979;BME280;21185;50.978;13.720;2024-02-21T17:58:32;97897.03;;;8.54;68.50
34979;BME280;21185;50.978;13.720;2024-02-21T18:03:35;97893.47;;;8.55;68.45
34979;BME280;21185;50.978;13.720;2024-02-21T18:08:37;97877.50;;;8.59;67.76
34979;BME280;21185;50.978;13.720;2024-02-21T18:13:39;97869.56;;;8.61;67.31
34979;BME280;21185;50.978;13.720;2024-02-21T18:18:42;97860.53;;;8.65;66.93
34979;BME280;21185;50.978;13.720;2024-02-21T18:23:44;97849.06;;;8.75;66.52
34979;BME280;21185;50.978;13.720;2024-02-21T18:28:47;97843.72;;;8.85;65.99
34979;BME280;21185;50.978;13.720;2024-02-21T18:33:50;97839.53;;;8.92;65.53
34979;BME280;21185;50.978;13.720;2024-02-21T18:38:53;97833.69;;;8.98;65.14
34979;BME280;21185;50.978;13.720;2024-02-21T18:43:55;97828.19;;;9.01;64.91
34979;BME280;21185;50.978;13.720;2024-02-21T18:48:57;97815.91;;;9.03;64.77
34979;BME280;21185;50.978;13.720;2024-02-21T18:54:00;97811.53;;;9.04;64.74
34979;BME280;21185;50.978;13.720;2024-02-21T18:59:04;97799.56;;;9.03;64.75
34979;BME280;21185;50.978;13.720;2024-02-21T19:04:07;97796.34;;;9.01;64.44
34979;BME280;21185;50.978;13.720;2024-02-21T19:09:09;97794.56;;;9.01;64.53
34979;BME280;21185;50.978;13.720;2024-02-21T19:14:12;97783.06;;;9.04;64.06
34979;BME280;21185;50.978;13.720;2024-02-21T19:19:14;97775.13;;;9.05;64.21
34979;BME280;21185;50.978;13.720;2024-02-21T19:24:18;97766.25;;;9.08;63.81
34979;BME280;21185;50.978;13.720;2024-02-21T19:29:20;97744.41;;;9.11;63.40
34979;BME280;21185;50.978;13.720;2024-02-21T19:34:27;97728.84;;;9.19;62.32
34979;BME280;21185;50.978;13.720;2024-02-21T19:39:30;97721.06;;;9.27;61.32
34979;BME280;21185;50.978;13.720;2024-02-21T19:44:32;97710.84;;;9.33;61.08
34979;BME280;21185;50.978;13.720;2024-02-21T19:49:34;97692.03;;;9.39;60.78
34979;BME280;21185;50.978;13.720;2024-02-21T19:54:37;97673.41;;;9.44;60.75
34979;BME280;21185;50.978;13.720;2024-02-21T19:59:39;97659.13;;;9.48;60.35
34979;BME280;21185;50.978;13.720;2024-02-21T20:04:41;97648.09;;;9.54;58.99
34979;BME280;21185;50.978;13.720;2024-02-21T20:09:44;97645.63;;;9.61;57.98
34979;BME280;21185;50.978;13.720;2024-02-21T20:14:46;97643.34;;;9.66;57.38
34979;BME280;21185;50.978;13.720;2024-02-21T20:19:48;97633.25;;;9.71;57.01
34979;BME280;21185;50.978;13.720;2024-02-21T20:24:50;97631.78;;;9.77;56.24
34979;BME280;21185;50.978;13.720;2024-02-21T20:29:53;97628.66;;;9.81;55.32
34979;BME280;21185;50.978;13.720;2024-02-21T20:34:55;97634.31;;;9.85;55.00
34979;BME280;21185;50.978;13.720;2024-02-21T20:39:58;97635.91;;;9.86;54.61
34979;BME280;21185;50.978;13.720;2024-02-21T20:45:00;97627.50;;;9.84;55.59
34979;BME280;21185;50.978;13.720;2024-02-21T20:50:04;97621.06;;;9.80;56.24
34979;BME280;21185;50.978;13.720;2024-02-21T20:55:12;97619.78;;;9.76;56.19
34979;BME280;21185;50.978;13.720;2024-02-21T21:00:16;97624.34;;;9.73;57.11
34979;BME280;21185;50.978;13.720;2024-02-21T21:05:19;97618.53;;;9.71;56.92
34979;BME280;21185;50.978;13.720;2024-02-21T21:10:21;97609.59;;;9.74;57.27
34979;BME280;21185;50.978;13.720;2024-02-21T21:15:25;97607.81;;;9.74;57.41
34979;BME280;21185;50.978;13.720;2024-02-21T21:20:31;97587.09;;;9.74;57.72
34979;BME280;21185;50.978;13.720;2024-02-21T21:25:34;97587.91;;;9.75;57.37
34979;BME280;21185;50.978;13.720;2024-02-21T21:30:40;97571.53;;;9.74;57.19
34979;BME280;21185;50.978;13.720;2024-02-21T21:35:43;97566.38;;;9.74;57.38
34979;BME280;21185;50.978;13.720;2024-02-21T21:40:48;97561.19;;;9.74;57.00
34979;BME280;21185;50.978;13.720;2024-02-21T21:45:50;97548.88;;;9.77;56.29
34979;BME280;21185;50.978;13.720;2024-02-21T21:50:52;97546.91;;;9.79;56.01
34979;BME280;21185;50.978;13.720;2024-02-21T21:55:55;97546.38;;;9.83;54.17
34979;BME280;21185;50.978;13.720;2024-02-21T22:00:57;97549.25;;;9.88;53.09
34979;BME280;21185;50.978;13.720;2024-02-21T22:05:59;97535.94;;;9.91;53.08
34979;BME280;21185;50.978;13.720;2024-02-21T22:11:01;97534.78;;;9.94;52.39
34979;BME280;21185;50.978;13.720;2024-02-21T22:16:04;97530.88;;;9.98;51.86
34979;BME280;21185;50.978;13.720;2024-02-21T22:21:07;97528.09;;;9.99;52.04
34979;BME280;21185;50.978;13.720;2024-02-21T22:26:10;97526.59;;;10.05;50.77
34979;BME280;21185;50.978;13.720;2024-02-21T22:31:13;97522.66;;;10.09;50.10
34979;BME280;21185;50.978;13.720;2024-02-21T22:36:16;97524.88;;;10.12;49.31
34979;BME280;21185;50.978;13.720;2024-02-21T22:41:24;97516.75;;;10.15;48.87
34979;BME280;21185;50.978;13.720;2024-02-21T22:46:26;97518.00;;;10.19;48.05
34979;BME280;21185;50.978;13.720;2024-02-21T22:51:28;97504.91;;;10.21;47.44
34979;BME280;21185;50.978;13.720;2024-02-21T22:56:31;97508.56;;;10.26;46.85
34979;BME280;21185;50.978;13.720;2024-02-21T23:01:34;97509.03;;;10.30;46.34
34979;BME280;21185;50.978;13.720;2024-02-21T23:06:37;97496.16;;;10.36;46.09
34979;BME280;21185;50.978;13.720;2024-02-21T23:11:41;97497.56;;;10.39;46.04
34979;BME280;21185;50.978;13.720;2024-02-21T23:16:45;97487.63;;;10.43;46.11
34979;BME280;21185;50.978;13.720;2024-02-21T23:21:49;97472.06;;;10.43;46.43
34979;BME280;21185;50.978;13.720;2024-02-21T23:26:51;97482.25;;;10.44;46.76
34979;BME280;21185;50.978;13.720;2024-02-21T23:31:53;97458.72;;;10.46;47.26
34979;BME280;21185;50.978;13.720;2024-02-21T23:36:56;97457.56;;;10.48;47.78
34979;BME280;21185;50.978;13.720;2024-02-21T23:41:58;97443.06;;;10.54;48.36
34979;BME280;21185;50.978;13.720;2024-02-21T23:47:00;97439.47;;;10.55;48.96
34979;BME280;21185;50.978;13.720;2024-02-21T23:52:02;97424.72;;;10.55;49.55
34979;BME280;21185;50.978;13.720;2024-02-21T23:57:06;97416.13;;;10.55;50.19
